createdAt,value
2019-05-17T00:00:37.716Z,100915.44
2019-05-17T00:03:07.708Z,100915.00
2019-05-17T00:05:37.726Z,100915.97
2019-05-17T00:08:07.951Z,100906.16
2019-05-17T00:10:37.932Z,100909.81
2019-05-17T00:13:11.837Z,100902.66
2019-05-17T00:15:39.632Z,100899.72
2019-05-17T00:18:09.634Z,100905.42
2019-05-17T00:20:39.615Z,100907.16
2019-05-17T00:23:09.622Z,100938.14
2019-05-17T00:25:39.623Z,100897.34
2019-05-17T00:28:09.618Z,100898.25
2019-05-17T00:30:39.598Z,100908.80
2019-05-17T00:33:09.660Z,100904.91
2019-05-17T00:35:39.628Z,100904.91
2019-05-17T00:38:09.669Z,100895.61
2019-05-17T00:40:39.628Z,100891.09
2019-05-17T00:43:09.595Z,100891.95
2019-05-17T00:45:39.606Z,100891.95
2019-05-17T00:48:09.621Z,100881.55
2019-05-17T00:50:39.606Z,100887.87
2019-05-17T00:53:09.658Z,100881.13
2019-05-17T00:55:39.624Z,100881.90
2019-05-17T00:58:09.614Z,100875.13
2019-05-17T01:00:39.575Z,100873.22
2019-05-17T01:03:09.551Z,100865.84
2019-05-17T01:05:39.609Z,100866.83
2019-05-17T01:08:09.589Z,100866.83
2019-05-17T01:10:39.553Z,100861.91
2019-05-17T01:13:09.569Z,100857.70
2019-05-17T01:15:39.527Z,100858.51
2019-05-17T01:18:09.539Z,100858.45
2019-05-17T01:20:39.543Z,100855.13
2019-05-17T01:23:09.611Z,100855.05
2019-05-17T01:25:39.584Z,100855.95
2019-05-17T01:28:09.570Z,100846.38
2019-05-17T01:30:39.589Z,100845.16
2019-05-17T01:33:09.644Z,100846.94
2019-05-17T01:35:39.603Z,100849.55
2019-05-17T01:38:09.586Z,100845.67
2019-05-17T01:40:39.971Z,100839.95
2019-05-17T01:43:09.957Z,100842.77
2019-05-17T01:45:39.937Z,100842.77
2019-05-17T01:48:09.945Z,100845.71
2019-05-17T01:50:39.977Z,100846.45
2019-05-17T01:53:09.980Z,100837.78
2019-05-17T01:55:40.208Z,100837.78
2019-05-17T01:58:10.276Z,100846.53
2019-05-17T02:00:40.322Z,100842.98
2019-05-17T02:03:10.281Z,100842.98
2019-05-17T02:05:40.265Z,100835.97
2019-05-17T02:08:10.227Z,100838.69
2019-05-17T02:10:40.240Z,100831.96
2019-05-17T02:13:10.565Z,100832.61
2019-05-17T02:15:40.634Z,100826.91
2019-05-17T02:18:10.882Z,100829.09
2019-05-17T02:20:40.915Z,100825.23
2019-05-17T02:23:10.938Z,100825.23
2019-05-17T02:25:40.911Z,100815.38
2019-05-17T02:28:12.240Z,100815.38
2019-05-17T02:30:44.103Z,100821.45
2019-05-17T02:33:14.342Z,100819.91
2019-05-17T02:35:44.334Z,100819.06
2019-05-17T02:38:14.460Z,100817.67
2019-05-17T02:40:44.520Z,100815.36
2019-05-17T02:43:14.546Z,100827.49
2019-05-17T02:45:44.506Z,100827.49
2019-05-17T02:48:14.462Z,100810.63
2019-05-17T02:50:48.091Z,100817.60
2019-05-17T02:53:16.699Z,100817.60
2019-05-17T02:55:46.691Z,100815.03
2019-05-17T02:58:16.656Z,100808.53
2019-05-17T03:00:46.631Z,100809.13
2019-05-17T03:03:16.677Z,100809.13
2019-05-17T03:05:46.854Z,100817.41
2019-05-17T03:08:16.835Z,100804.26
2019-05-17T03:10:46.856Z,100817.61
2019-05-17T03:13:18.082Z,100819.42
2019-05-17T03:15:48.281Z,100822.52
2019-05-17T03:18:18.415Z,100819.98
2019-05-17T03:20:48.474Z,100819.98
2019-05-17T03:23:18.469Z,100821.28
2019-05-17T03:25:48.468Z,100825.02
2019-05-17T03:28:18.481Z,100828.61
2019-05-17T03:30:49.127Z,100826.67
2019-05-17T03:33:19.065Z,100814.31
2019-05-17T03:35:49.488Z,100816.30
2019-05-17T03:38:19.464Z,100813.84
2019-05-17T03:41:12.338Z,100811.42
2019-05-17T03:43:22.589Z,100804.88
2019-05-17T03:45:53.449Z,100809.64
2019-05-17T03:48:23.804Z,100808.55
2019-05-17T03:50:53.858Z,100813.96
2019-05-17T03:53:23.856Z,100798.47
2019-05-17T03:55:54.327Z,100798.47
2019-05-17T03:58:24.432Z,100808.48
2019-05-17T04:00:54.461Z,100808.48
2019-05-17T04:03:24.441Z,100811.17
2019-05-17T04:05:54.405Z,100818.18
2019-05-17T04:08:24.384Z,100815.67
2019-05-17T04:10:54.344Z,100818.73
2019-05-17T04:13:24.331Z,100814.98
2019-05-17T04:15:54.306Z,100826.47
2019-05-17T04:18:24.333Z,100820.92
2019-05-17T04:20:54.350Z,100809.75
2019-05-17T04:23:24.350Z,100819.09
2019-05-17T04:25:54.335Z,100814.42
2019-05-17T04:28:24.307Z,100814.42
2019-05-17T04:30:54.265Z,100824.72
2019-05-17T04:33:24.251Z,100818.70
2019-05-17T04:35:54.320Z,100833.14
2019-05-17T04:38:24.300Z,100833.14
2019-05-17T04:40:54.269Z,100830.66
2019-05-17T04:43:24.268Z,100826.54
2019-05-17T04:45:54.268Z,100830.09
2019-05-17T04:48:24.247Z,100831.80
2019-05-17T04:50:54.212Z,100840.95
2019-05-17T04:53:24.206Z,100837.64
2019-05-17T04:55:54.317Z,100830.97
2019-05-17T04:58:24.253Z,100837.91
2019-05-17T05:00:54.254Z,100832.49
2019-05-17T05:03:24.234Z,100830.39
2019-05-17T05:05:54.198Z,100830.39
2019-05-17T05:08:24.164Z,100828.93
2019-05-17T05:10:54.143Z,100826.44
2019-05-17T05:13:24.152Z,100822.64
2019-05-17T05:15:54.205Z,100822.64
2019-05-17T05:18:24.199Z,100817.17
2019-05-17T05:20:54.300Z,100817.91
2019-05-17T05:23:24.301Z,100814.45
2019-05-17T05:25:54.278Z,100816.41
2019-05-17T05:28:24.306Z,100821.59
2019-05-17T05:30:54.306Z,100822.36
2019-05-17T05:33:24.312Z,100822.68
2019-05-17T05:35:54.280Z,100823.72
2019-05-17T05:38:24.299Z,100819.16
2019-05-17T05:40:54.262Z,100821.92
2019-05-17T05:43:24.242Z,100821.92
2019-05-17T05:45:54.236Z,100810.97
2019-05-17T05:48:24.221Z,100813.59
2019-05-17T05:50:54.209Z,100813.42
2019-05-17T05:53:24.161Z,100815.56
2019-05-17T05:55:54.155Z,100811.22
2019-05-17T05:58:24.248Z,100808.07
2019-05-17T06:00:54.181Z,100811.01
2019-05-17T06:03:24.172Z,100812.17
2019-05-17T06:05:54.180Z,100803.20
2019-05-17T06:08:24.200Z,100805.76
2019-05-17T06:10:54.172Z,100800.98
2019-05-17T06:13:24.160Z,100804.34
2019-05-17T06:15:54.126Z,100804.56
2019-05-17T06:18:24.143Z,100806.27
2019-05-17T06:20:54.140Z,100796.77
2019-05-17T06:23:24.136Z,100795.89
2019-05-17T06:25:54.137Z,100791.35
2019-05-17T06:28:24.143Z,100791.98
2019-05-17T06:30:54.127Z,100791.98
2019-05-17T06:33:30.626Z,100792.31
2019-05-17T06:35:55.867Z,100799.79
2019-05-17T06:38:25.812Z,100795.69
2019-05-17T06:40:55.876Z,100787.21
2019-05-17T06:43:25.847Z,100793.54
2019-05-17T06:45:55.854Z,100783.62
2019-05-17T06:48:25.813Z,100787.72
2019-05-17T06:50:55.833Z,100790.31
2019-05-17T06:53:25.794Z,100792.74
2019-05-17T06:55:55.797Z,100789.67
2019-05-17T06:58:25.797Z,100783.73
2019-05-17T07:00:55.832Z,100785.86
2019-05-17T07:03:25.930Z,100788.84
2019-05-17T07:05:59.509Z,100786.64
2019-05-17T07:08:29.610Z,100791.95
2019-05-17T07:10:59.873Z,100793.22
2019-05-17T07:13:30.262Z,100791.69
2019-05-17T07:16:00.263Z,100799.13
2019-05-17T07:18:30.292Z,100793.11
2019-05-17T07:21:03.332Z,100778.50
2019-05-17T07:23:31.949Z,100776.88
2019-05-17T07:26:01.956Z,100786.16
2019-05-17T07:28:32.001Z,100788.73
2019-05-17T07:31:02.003Z,100784.20
2019-05-17T07:33:31.958Z,100791.95
2019-05-17T07:36:02.058Z,100789.09
2019-05-17T07:38:32.046Z,100787.56
2019-05-17T07:41:02.059Z,100776.91
2019-05-17T07:43:32.045Z,100785.00
2019-05-17T07:46:02.049Z,100776.67
2019-05-17T07:48:32.031Z,100779.02
2019-05-17T07:51:02.028Z,100781.23
2019-05-17T07:53:31.987Z,100780.94
2019-05-17T07:56:01.969Z,100784.81
2019-05-17T07:58:31.928Z,100778.30
2019-05-17T08:01:02.431Z,100783.16
2019-05-17T08:03:32.478Z,100785.50
2019-05-17T08:06:02.479Z,100777.80
2019-05-17T08:08:32.488Z,100783.77
2019-05-17T08:11:02.482Z,100789.37
2019-05-17T08:13:33.753Z,100793.46
2019-05-17T08:16:03.957Z,100787.98
2019-05-17T08:18:33.933Z,100779.16
2019-05-17T08:21:04.405Z,100787.61
2019-05-17T08:23:34.424Z,100775.87
2019-05-17T08:26:04.441Z,100782.77
2019-05-17T08:28:34.436Z,100784.11
2019-05-17T08:31:04.418Z,100776.90
2019-05-17T08:33:34.383Z,100777.52
2019-05-17T08:36:04.402Z,100778.09
2019-05-17T08:38:34.358Z,100771.98
2019-05-17T08:41:04.381Z,100774.22
2019-05-17T08:43:43.074Z,100769.98
2019-05-17T08:46:06.051Z,100772.73
2019-05-17T08:48:36.068Z,100771.42
2019-05-17T08:51:06.074Z,100765.45
2019-05-17T08:53:36.049Z,100765.74
2019-05-17T08:56:06.054Z,100765.19
2019-05-17T08:58:36.022Z,100752.97
2019-05-17T09:01:05.993Z,100749.20
2019-05-17T09:03:35.933Z,100748.02
2019-05-17T09:06:05.974Z,100747.18
2019-05-17T09:08:35.986Z,100738.16
2019-05-17T09:11:05.965Z,100735.72
2019-05-17T09:13:35.946Z,100728.94
2019-05-17T09:16:05.932Z,100732.63
2019-05-17T09:18:35.890Z,100726.99
2019-05-17T09:21:05.948Z,100723.01
2019-05-17T09:23:35.931Z,100719.20
2019-05-17T09:26:05.986Z,100721.00
2019-05-17T09:28:35.994Z,100722.14
2019-05-17T09:31:05.986Z,100715.48
2019-05-17T09:33:35.943Z,100714.66
2019-05-17T09:36:06.053Z,100712.73
2019-05-17T09:38:36.024Z,100714.30
2019-05-17T09:41:06.010Z,100708.51
2019-05-17T09:43:35.995Z,100705.47
2019-05-17T09:46:06.006Z,100700.84
2019-05-17T09:48:35.944Z,100705.59
2019-05-17T09:51:05.961Z,100698.93
2019-05-17T09:53:35.952Z,100710.66
2019-05-17T09:56:06.126Z,100701.63
2019-05-17T09:58:36.088Z,100701.73
2019-05-17T10:01:06.114Z,100698.09
2019-05-17T10:03:36.158Z,100688.91
2019-05-17T10:06:06.270Z,100681.85
2019-05-17T10:08:36.281Z,100677.73
2019-05-17T10:11:09.693Z,100663.33
2019-05-17T10:13:37.908Z,100664.69
2019-05-17T10:16:10.137Z,100659.64
2019-05-17T10:18:40.082Z,100654.47
2019-05-17T10:21:10.571Z,100656.81
2019-05-17T10:23:40.873Z,100646.86
2019-05-17T10:26:11.013Z,100650.31
2019-05-17T10:28:40.991Z,100651.58
2019-05-17T10:31:11.998Z,100650.52
2019-05-17T10:33:42.403Z,100653.67
2019-05-17T10:36:12.584Z,100658.26
2019-05-17T10:38:42.568Z,100647.02
2019-05-17T10:41:12.674Z,100646.60
2019-05-17T10:43:42.672Z,100643.97
2019-05-17T10:46:12.724Z,100647.16
2019-05-17T10:48:42.700Z,100649.15
2019-05-17T10:51:13.441Z,100648.91
2019-05-17T10:53:43.721Z,100648.72
2019-05-17T10:56:14.494Z,100651.13
2019-05-17T10:58:44.489Z,100649.42
2019-05-17T11:01:14.468Z,100652.27
2019-05-17T11:03:44.638Z,100650.10
2019-05-17T11:06:14.618Z,100647.89
2019-05-17T11:08:44.624Z,100646.25
2019-05-17T11:11:14.588Z,100647.66
2019-05-17T11:13:44.562Z,100645.95
2019-05-17T11:16:14.710Z,100650.56
2019-05-17T11:18:44.711Z,100648.77
2019-05-17T11:21:15.016Z,100655.52
2019-05-17T11:23:44.991Z,100653.36
2019-05-17T11:26:14.958Z,100645.37
2019-05-17T11:28:44.965Z,100642.19
2019-05-17T11:31:14.959Z,100634.08
2019-05-17T11:33:44.974Z,100636.28
2019-05-17T11:36:14.969Z,100638.92
2019-05-17T11:38:44.981Z,100642.64
2019-05-17T11:41:21.163Z,100634.97
2019-05-17T11:43:46.706Z,100637.80
2019-05-17T11:46:16.663Z,100634.55
2019-05-17T11:48:46.648Z,100636.73
2019-05-17T11:51:16.612Z,100636.73
2019-05-17T11:53:46.774Z,100633.27
2019-05-17T11:56:16.766Z,100634.70
2019-05-17T11:58:46.754Z,100632.32
2019-05-17T12:01:16.745Z,100626.71
2019-05-17T12:03:46.727Z,100622.12
2019-05-17T12:06:16.719Z,100619.84
2019-05-17T12:08:46.710Z,100623.35
2019-05-17T12:11:16.681Z,100625.99
2019-05-17T12:13:46.731Z,100618.69
2019-05-17T12:16:16.709Z,100613.36
2019-05-17T12:18:46.733Z,100624.45
2019-05-17T12:21:16.725Z,100623.39
2019-05-17T12:23:46.735Z,100615.00
2019-05-17T12:26:16.788Z,100613.91
2019-05-17T12:28:46.872Z,100610.73
2019-05-17T12:31:17.035Z,100608.00
2019-05-17T12:33:47.017Z,100609.38
2019-05-17T12:36:17.012Z,100603.04
2019-05-17T12:38:47.035Z,100604.80
2019-05-17T12:41:16.990Z,100602.24
2019-05-17T12:43:47.007Z,100601.37
2019-05-17T12:46:16.989Z,100603.38
2019-05-17T12:48:46.999Z,100598.94
2019-05-17T12:51:16.961Z,100602.59
2019-05-17T12:53:46.954Z,100597.75
2019-05-17T12:56:16.925Z,100589.81
2019-05-17T12:58:47.446Z,100605.61
2019-05-17T13:01:17.429Z,100601.94
2019-05-17T13:03:47.502Z,100598.83
2019-05-17T13:06:17.473Z,100593.70
2019-05-17T13:08:47.562Z,100598.95
2019-05-17T13:11:17.554Z,100597.58
2019-05-17T13:13:47.640Z,100592.67
2019-05-17T13:16:19.288Z,100597.89
2019-05-17T13:18:49.538Z,100594.33
2019-05-17T13:21:19.529Z,100589.44
2019-05-17T13:23:49.529Z,100585.92
2019-05-17T13:26:19.543Z,100584.66
2019-05-17T13:28:49.666Z,100584.73
2019-05-17T13:31:19.614Z,100588.06
2019-05-17T13:33:49.682Z,100583.89
2019-05-17T13:36:19.631Z,100583.13
2019-05-17T13:38:49.979Z,100582.36
2019-05-17T13:41:19.982Z,100581.74
2019-05-17T13:43:50.105Z,100584.45
2019-05-17T13:46:32.029Z,100580.88
2019-05-17T13:48:51.873Z,100577.98
2019-05-17T13:51:21.834Z,100569.83
2019-05-17T13:53:51.835Z,100567.64
2019-05-17T13:56:21.817Z,100566.83
2019-05-17T13:58:51.993Z,100563.97
2019-05-17T14:01:21.953Z,100565.44
2019-05-17T14:03:51.982Z,100566.12
2019-05-17T14:06:21.938Z,100574.72
2019-05-17T14:08:52.012Z,100573.16
2019-05-17T14:11:21.952Z,100571.52
2019-05-17T14:13:51.950Z,100571.54
2019-05-17T14:16:21.953Z,100577.83
2019-05-17T14:18:52.027Z,100567.88
2019-05-17T14:21:22.048Z,100575.16
2019-05-17T14:23:52.046Z,100572.08
2019-05-17T14:26:22.024Z,100577.02
2019-05-17T14:28:52.042Z,100571.45
2019-05-17T14:31:22.043Z,100565.03
2019-05-17T14:33:52.019Z,100565.84
2019-05-17T14:36:22.025Z,100564.49
2019-05-17T14:38:52.108Z,100567.52
2019-05-17T14:41:22.093Z,100567.86
2019-05-17T14:43:52.082Z,100564.73
2019-05-17T14:46:22.117Z,100568.19
2019-05-17T14:48:52.096Z,100561.31
2019-05-17T14:51:22.293Z,100565.98
2019-05-17T14:53:52.469Z,100560.73
2019-05-17T14:56:22.511Z,100563.30
2019-05-17T14:58:52.503Z,100562.27
2019-05-17T15:01:22.566Z,100556.95
2019-05-17T15:03:52.706Z,100558.63
2019-05-17T15:06:22.713Z,100555.92
2019-05-17T15:08:52.678Z,100548.77
2019-05-17T15:11:22.682Z,100546.62
2019-05-17T15:13:52.677Z,100544.01
2019-05-17T15:16:22.685Z,100549.23
2019-05-17T15:18:52.664Z,100545.67
2019-05-17T15:21:22.718Z,100537.56
2019-05-17T15:23:53.072Z,100531.03
2019-05-17T15:26:23.096Z,100536.40
2019-05-17T15:28:53.150Z,100534.16
2019-05-17T15:31:23.160Z,100526.34
2019-05-17T15:33:53.183Z,100536.71
2019-05-17T15:36:23.265Z,100527.95
2019-05-17T15:38:53.264Z,100514.69
2019-05-17T15:41:23.431Z,100516.37
2019-05-17T15:43:53.511Z,100522.84
2019-05-17T15:46:23.533Z,100512.75
2019-05-17T15:48:53.528Z,100508.10
2019-05-17T15:51:23.662Z,100516.81
2019-05-17T15:53:53.857Z,100506.55
2019-05-17T15:56:23.924Z,100504.69
2019-05-17T15:58:54.561Z,100505.28
2019-05-17T16:01:24.750Z,100496.98
2019-05-17T16:03:54.781Z,100495.19
2019-05-17T16:06:25.362Z,100489.29
2019-05-17T16:08:55.831Z,100489.89
2019-05-17T16:11:26.251Z,100490.18
2019-05-17T16:13:56.949Z,100486.53
2019-05-17T16:16:27.109Z,100483.55
2019-05-17T16:18:57.121Z,100486.99
2019-05-17T16:21:27.161Z,100481.48
2019-05-17T16:23:57.163Z,100476.98
2019-05-17T16:26:27.245Z,100473.12
2019-05-17T16:28:57.554Z,100472.62
2019-05-17T16:31:28.092Z,100477.44
2019-05-17T16:33:58.119Z,100474.34
2019-05-17T16:36:31.618Z,100475.19
2019-05-17T16:39:01.824Z,100475.45
2019-05-17T16:41:31.808Z,100473.08
2019-05-17T16:44:02.332Z,100471.30
2019-05-17T16:46:33.055Z,100466.07
2019-05-17T16:49:03.050Z,100464.83
2019-05-17T16:51:33.521Z,100463.52
2019-05-17T16:54:21.666Z,100456.55
2019-05-17T16:56:54.306Z,100464.39
2019-05-17T16:59:24.281Z,100461.81
2019-05-17T17:01:54.328Z,100457.41
2019-05-17T17:04:24.415Z,100460.89
2019-05-17T17:06:54.484Z,100458.83
2019-05-17T17:09:24.468Z,100456.93
2019-05-17T17:11:54.476Z,100452.17
2019-05-17T17:14:25.117Z,100452.60
2019-05-17T17:16:55.161Z,100458.56
2019-05-17T17:19:25.216Z,100456.52
2019-05-17T17:21:55.653Z,100450.72
2019-05-17T17:24:25.649Z,100450.79
2019-05-17T17:26:55.627Z,100455.20
2019-05-17T17:29:25.649Z,100450.38
2019-05-17T17:31:55.627Z,100460.56
2019-05-17T17:34:25.643Z,100455.08
2019-05-17T17:36:55.623Z,100455.16
2019-05-17T17:39:25.633Z,100453.47
2019-05-17T17:41:55.606Z,100455.56
2019-05-17T17:44:25.629Z,100449.72
2019-05-17T17:46:55.631Z,100446.63
2019-05-17T17:49:25.641Z,100451.66
2019-05-17T17:51:55.699Z,100453.09
2019-05-17T17:54:26.146Z,100449.16
2019-05-17T17:56:56.126Z,100450.09
2019-05-17T17:59:26.227Z,100450.88
2019-05-17T18:01:56.195Z,100450.63
2019-05-17T18:04:26.223Z,100444.20
2019-05-17T18:06:56.186Z,100447.75
2019-05-17T18:09:26.224Z,100452.36
2019-05-17T18:11:56.217Z,100444.48
2019-05-17T18:14:26.226Z,100448.52
2019-05-17T18:16:56.213Z,100446.50
2019-05-17T18:19:26.241Z,100450.22
2019-05-17T18:21:56.248Z,100446.02
2019-05-17T18:24:26.287Z,100447.74
2019-05-17T18:26:56.293Z,100451.23
2019-05-17T18:29:26.295Z,100453.13
2019-05-17T18:31:56.281Z,100450.84
2019-05-17T18:34:26.301Z,100450.53
2019-05-17T18:36:56.291Z,100455.41
2019-05-17T18:39:26.299Z,100449.97
2019-05-17T18:41:56.287Z,100452.02
2019-05-17T18:44:28.061Z,100450.46
2019-05-17T18:46:57.987Z,100453.18
2019-05-17T18:49:27.984Z,100453.03
2019-05-17T18:51:57.970Z,100452.26
2019-05-17T18:54:27.991Z,100458.61
2019-05-17T18:56:57.999Z,100455.81
2019-05-17T18:59:28.016Z,100462.09
2019-05-17T19:01:57.988Z,100455.49
2019-05-17T19:04:27.996Z,100458.83
2019-05-17T19:06:58.006Z,100460.85
2019-05-17T19:09:28.018Z,100461.72
2019-05-17T19:11:58.023Z,100471.05
2019-05-17T19:14:40.834Z,100469.09
2019-05-17T19:16:59.719Z,100477.13
2019-05-17T19:19:29.697Z,100472.68
2019-05-17T19:21:59.719Z,100480.01
2019-05-17T19:24:29.748Z,100481.84
2019-05-17T19:26:59.735Z,100486.23
2019-05-17T19:29:29.735Z,100484.39
2019-05-17T19:31:59.748Z,100480.27
2019-05-17T19:34:29.765Z,100485.57
2019-05-17T19:36:59.804Z,100485.56
2019-05-17T19:39:29.795Z,100490.42
2019-05-17T19:41:59.830Z,100482.13
2019-05-17T19:44:29.834Z,100491.37
2019-05-17T19:46:59.928Z,100484.87
2019-05-17T19:49:29.914Z,100484.87
2019-05-17T19:51:59.965Z,100495.08
2019-05-17T19:54:29.988Z,100487.70
2019-05-17T19:57:00.000Z,100492.34
2019-05-17T19:59:30.038Z,100498.50
2019-05-17T20:02:00.047Z,100495.73
2019-05-17T20:04:30.031Z,100500.88
2019-05-17T20:07:00.077Z,100499.41
2019-05-17T20:09:31.150Z,100497.17
2019-05-17T20:12:02.632Z,100496.14
2019-05-17T20:14:32.618Z,100495.25
2019-05-17T20:17:02.638Z,100489.95
2019-05-17T20:19:32.607Z,100493.31
2019-05-17T20:22:02.636Z,100493.18
2019-05-17T20:24:32.635Z,100488.37
2019-05-17T20:27:02.646Z,100487.52
2019-05-17T20:29:32.633Z,100484.03
2019-05-17T20:32:02.653Z,100482.99
2019-05-17T20:34:32.655Z,100486.03
2019-05-17T20:37:02.694Z,100490.20
2019-05-17T20:39:32.689Z,100483.92
2019-05-17T20:42:02.744Z,100486.16
2019-05-17T20:44:32.734Z,100486.53
2019-05-17T20:47:02.855Z,100489.04
2019-05-17T20:49:32.845Z,100483.89
2019-05-17T20:52:02.920Z,100484.44
2019-05-17T20:54:33.017Z,100479.08
2019-05-17T20:57:03.114Z,100475.56
2019-05-17T20:59:33.103Z,100475.62
2019-05-17T21:02:03.134Z,100473.97
2019-05-17T21:04:33.239Z,100472.42
2019-05-17T21:07:03.253Z,100470.48
2019-05-17T21:09:33.253Z,100470.27
2019-05-17T21:12:03.335Z,100469.16
2019-05-17T21:14:33.327Z,100468.09
2019-05-17T21:17:03.357Z,100474.30
2019-05-17T21:19:33.349Z,100466.19
2019-05-17T21:22:03.428Z,100469.19
2019-05-17T21:24:33.431Z,100476.16
2019-05-17T21:27:03.448Z,100467.55
2019-05-17T21:29:33.431Z,100461.06
2019-05-17T21:32:03.427Z,100467.31
2019-05-17T21:34:33.395Z,100467.51
2019-05-17T21:37:03.468Z,100464.58
2019-05-17T21:39:33.512Z,100465.41
2019-05-17T21:42:03.519Z,100462.17
2019-05-17T21:44:33.582Z,100462.17
2019-05-17T21:47:04.929Z,100462.42
2019-05-17T21:49:35.167Z,100465.66
2019-05-17T21:52:05.311Z,100465.15
2019-05-17T21:54:35.249Z,100467.32
2019-05-17T21:57:05.854Z,100472.44
2019-05-17T21:59:35.822Z,100467.58
2019-05-17T22:02:05.940Z,100467.84
2019-05-17T22:04:35.969Z,100465.67
2019-05-17T22:07:06.160Z,100465.15
2019-05-17T22:09:36.212Z,100468.38
2019-05-17T22:12:09.547Z,100471.08
2019-05-17T22:14:39.524Z,100476.75
2019-05-17T22:17:10.446Z,100464.05
2019-05-17T22:19:40.424Z,100476.48
2019-05-17T22:22:10.467Z,100473.25
2019-05-17T22:24:40.474Z,100469.72
2019-05-17T22:27:10.502Z,100472.69
2019-05-17T22:29:40.494Z,100472.16
2019-05-17T22:32:10.499Z,100470.00
2019-05-17T22:34:40.477Z,100466.77
2019-05-17T22:37:10.497Z,100466.50
2019-05-17T22:39:40.459Z,100466.50
2019-05-17T22:42:10.450Z,100472.42
2019-05-17T22:44:40.424Z,100468.38
2019-05-17T22:47:10.443Z,100468.09
2019-05-17T22:49:40.412Z,100474.03
2019-05-17T22:52:10.423Z,100466.23
2019-05-17T22:54:40.428Z,100470.54
2019-05-17T22:57:10.426Z,100457.30
2019-05-17T22:59:40.388Z,100453.24
2019-05-17T23:02:10.381Z,100458.64
2019-05-17T23:04:40.372Z,100462.17
2019-05-17T23:07:10.371Z,100457.30
2019-05-17T23:09:40.919Z,100455.94
2019-05-17T23:12:10.937Z,100452.42
2019-05-17T23:14:40.917Z,100456.48
2019-05-17T23:17:10.943Z,100452.43
2019-05-17T23:19:40.948Z,100448.09
2019-05-17T23:22:10.941Z,100437.23
2019-05-17T23:24:40.926Z,100444.30
2019-05-17T23:27:10.904Z,100435.64
2019-05-17T23:29:41.310Z,100437.83
2019-05-17T23:32:11.341Z,100437.28
2019-05-17T23:34:41.449Z,100443.76
2019-05-17T23:37:11.408Z,100438.05
2019-05-17T23:39:41.412Z,100447.41
2019-05-17T23:42:11.379Z,100439.08
2019-05-17T23:44:41.382Z,100436.61
2019-05-17T23:47:11.336Z,100440.04
2019-05-17T23:49:41.326Z,100448.48
2019-05-17T23:52:11.277Z,100440.77
2019-05-17T23:54:41.287Z,100442.34
2019-05-17T23:57:11.285Z,100435.39
2019-05-17T23:59:41.366Z,100432.91
